createdAt,value
2022-08-10T00:00:33.307Z,1004.24
2022-08-10T00:01:32.557Z,1004.29
2022-08-10T00:02:32.717Z,1004.25
2022-08-10T00:03:32.414Z,1004.30
2022-08-10T00:04:32.403Z,1004.26
2022-08-10T00:05:43.718Z,1004.27
2022-08-10T00:06:32.383Z,1004.28
2022-08-10T00:07:32.361Z,1004.30
2022-08-10T00:08:32.352Z,1004.27
2022-08-10T00:09:32.334Z,1004.32
2022-08-10T00:10:32.322Z,1004.29
2022-08-10T00:11:32.307Z,1004.33
2022-08-10T00:12:53.900Z,1004.36
2022-08-10T00:13:32.282Z,1004.34
2022-08-10T00:14:32.270Z,1004.35
2022-08-10T00:15:51.852Z,1004.36
2022-08-10T00:16:32.243Z,1004.35
2022-08-10T00:17:32.228Z,1004.39
2022-08-10T00:18:35.756Z,1004.37
2022-08-10T00:20:03.595Z,1004.36
2022-08-10T00:20:32.190Z,1004.38
2022-08-10T00:21:32.184Z,1004.35
2022-08-10T00:22:32.402Z,1004.38
2022-08-10T00:23:32.150Z,1004.27
2022-08-10T00:24:32.138Z,1004.36
2022-08-10T00:25:32.125Z,1004.38
2022-08-10T00:27:52.339Z,1004.27
2022-08-10T00:27:58.806Z,1004.32
2022-08-10T00:28:34.086Z,1004.26
2022-08-10T00:29:32.074Z,1004.30
2022-08-10T00:30:32.059Z,1004.26
2022-08-10T00:31:32.048Z,1004.31
2022-08-10T00:32:32.072Z,1004.26
2022-08-10T00:33:32.022Z,1004.27
2022-08-10T00:34:32.007Z,1004.22
2022-08-10T00:35:31.993Z,1004.23
2022-08-10T00:36:31.985Z,1004.25
2022-08-10T00:37:31.966Z,1004.24
2022-08-10T00:38:31.954Z,1004.21
2022-08-10T00:39:36.025Z,1004.22
2022-08-10T00:40:35.431Z,1004.22
2022-08-10T00:41:33.913Z,1004.26
2022-08-10T00:42:32.027Z,1004.23
2022-08-10T00:43:31.888Z,1004.21
2022-08-10T00:44:31.874Z,1004.24
2022-08-10T00:45:31.860Z,1004.25
2022-08-10T00:46:31.852Z,1004.24
2022-08-10T00:47:37.074Z,1004.18
2022-08-10T00:48:31.821Z,1004.19
2022-08-10T00:49:31.807Z,1004.16
2022-08-10T00:50:31.795Z,1004.19
2022-08-10T00:51:44.369Z,1004.17
2022-08-10T00:52:31.917Z,1004.16
2022-08-10T00:53:31.753Z,1004.17
2022-08-10T00:54:31.741Z,1004.18
2022-08-10T00:55:31.727Z,1004.19
2022-08-10T00:57:10.010Z,1004.24
2022-08-10T00:57:31.701Z,1004.21
2022-08-10T00:58:31.689Z,1004.18
2022-08-10T00:59:31.680Z,1004.20
2022-08-10T01:00:31.661Z,1004.16
2022-08-10T01:02:11.072Z,1004.21
2022-08-10T01:02:31.782Z,1004.22
2022-08-10T01:04:36.174Z,1004.19
2022-08-10T01:04:57.423Z,1004.20
2022-08-10T01:05:31.593Z,1004.17
2022-08-10T01:06:31.582Z,1004.20
2022-08-10T01:07:31.567Z,1004.18
2022-08-10T01:08:31.557Z,1004.16
2022-08-10T01:09:31.546Z,1004.12
2022-08-10T01:10:31.534Z,1004.17
2022-08-10T01:12:38.996Z,1004.14
2022-08-10T01:12:47.104Z,1004.14
2022-08-10T01:13:31.488Z,1004.13
2022-08-10T01:14:31.475Z,1004.16
2022-08-10T01:15:31.458Z,1004.15
2022-08-10T01:16:31.447Z,1004.14
2022-08-10T01:17:50.867Z,1004.11
2022-08-10T01:18:33.772Z,1004.10
2022-08-10T01:19:31.405Z,1004.05
2022-08-10T01:20:31.467Z,1004.09
2022-08-10T01:21:31.383Z,1004.10
2022-08-10T01:22:31.439Z,1004.12
2022-08-10T01:23:31.351Z,1004.10
2022-08-10T01:24:31.340Z,1004.12
2022-08-10T01:25:31.324Z,1004.08
2022-08-10T01:26:32.043Z,1004.12
2022-08-10T01:27:31.298Z,1004.07
2022-08-10T01:28:31.285Z,1004.06
2022-08-10T01:29:31.269Z,1004.02
2022-08-10T01:30:31.258Z,1004.09
2022-08-10T01:31:31.244Z,1004.08
2022-08-10T01:32:31.231Z,1004.07
2022-08-10T01:33:31.741Z,1004.10
2022-08-10T01:34:31.204Z,1004.07
2022-08-10T01:35:31.189Z,1004.03
2022-08-10T01:36:31.936Z,1004.03
2022-08-10T01:37:31.162Z,1004.06
2022-08-10T01:38:31.155Z,1004.02
2022-08-10T01:39:31.200Z,1004.09
2022-08-10T01:40:31.123Z,1004.02
2022-08-10T01:41:45.891Z,1004.06
2022-08-10T01:42:31.097Z,1004.06
2022-08-10T01:43:31.082Z,1004.09
2022-08-10T01:44:31.070Z,1004.03
2022-08-10T01:45:45.172Z,1004.02
2022-08-10T01:46:31.042Z,1004.05
2022-08-10T01:47:31.029Z,1004.05
2022-08-10T01:48:31.036Z,1004.08
2022-08-10T01:49:31.005Z,1004.13
2022-08-10T01:50:30.991Z,1004.15
2022-08-10T01:51:30.973Z,1004.17
2022-08-10T01:52:30.962Z,1004.21
2022-08-10T01:53:41.340Z,1004.12
2022-08-10T01:54:30.939Z,1004.17
2022-08-10T01:55:30.920Z,1004.15
2022-08-10T01:56:30.911Z,1004.16
2022-08-10T01:57:30.897Z,1004.13
2022-08-10T01:58:30.883Z,1004.14
2022-08-10T01:59:30.868Z,1004.10
2022-08-10T02:00:30.856Z,1004.12
2022-08-10T02:01:30.940Z,1004.16
2022-08-10T02:02:30.841Z,1004.14
2022-08-10T02:03:30.816Z,1004.16
2022-08-10T02:04:30.803Z,1004.15
2022-08-10T02:05:30.788Z,1004.15
2022-08-10T02:06:30.777Z,1004.09
2022-08-10T02:07:30.762Z,1004.10
2022-08-10T02:08:30.762Z,1004.14
2022-08-10T02:09:30.736Z,1004.10
2022-08-10T02:10:30.726Z,1004.16
2022-08-10T02:11:30.709Z,1004.13
2022-08-10T02:12:30.697Z,1004.19
2022-08-10T02:13:30.683Z,1004.19
2022-08-10T02:14:33.956Z,1004.17
2022-08-10T02:15:30.656Z,1004.16
2022-08-10T02:16:30.643Z,1004.15
2022-08-10T02:17:57.966Z,1004.17
2022-08-10T02:18:30.616Z,1004.14
2022-08-10T02:19:30.604Z,1004.15
2022-08-10T02:20:31.627Z,1004.20
2022-08-10T02:21:30.579Z,1004.23
2022-08-10T02:22:35.924Z,1004.16
2022-08-10T02:23:30.554Z,1004.17
2022-08-10T02:24:30.538Z,1004.20
2022-08-10T02:25:40.960Z,1004.23
2022-08-10T02:26:30.511Z,1004.26
2022-08-10T02:27:30.499Z,1004.25
2022-08-10T02:28:31.271Z,1004.26
2022-08-10T02:29:30.473Z,1004.23
2022-08-10T02:30:30.469Z,1004.27
2022-08-10T02:31:30.446Z,1004.23
2022-08-10T02:33:30.425Z,1004.25
2022-08-10T02:34:30.407Z,1004.21
2022-08-10T02:35:38.400Z,1004.21
2022-08-10T02:36:30.380Z,1004.24
2022-08-10T02:37:30.368Z,1004.27
2022-08-10T02:38:59.863Z,1004.27
2022-08-10T02:39:30.371Z,1004.29
2022-08-10T02:45:15.316Z,1004.29
2022-08-10T02:45:15.616Z,1004.29
2022-08-10T02:45:19.050Z,1004.30
2022-08-10T02:45:24.705Z,1004.31
2022-08-10T02:45:24.707Z,1004.35
2022-08-10T02:45:31.663Z,1004.38
2022-08-10T02:46:30.252Z,1004.39
2022-08-10T02:47:30.234Z,1004.39
2022-08-10T02:48:30.221Z,1004.37
2022-08-10T02:49:30.209Z,1004.39
2022-08-10T02:50:30.196Z,1004.37
2022-08-10T02:52:07.330Z,1004.38
2022-08-10T02:52:30.170Z,1004.36
2022-08-10T02:53:55.359Z,1004.31
2022-08-10T02:54:30.143Z,1004.32
2022-08-10T02:55:32.604Z,1004.34
2022-08-10T02:56:30.116Z,1004.36
2022-08-10T02:57:30.104Z,1004.32
2022-08-10T02:58:30.090Z,1004.35
2022-08-10T02:59:40.014Z,1004.42
2022-08-10T03:00:30.065Z,1004.37
2022-08-10T03:01:30.106Z,1004.40
2022-08-10T03:02:30.038Z,1004.35
2022-08-10T03:03:30.029Z,1004.34
2022-08-10T03:04:56.134Z,1004.37
2022-08-10T03:05:30.001Z,1004.38
2022-08-10T03:06:29.990Z,1004.34
2022-08-10T03:07:43.281Z,1004.38
2022-08-10T03:08:29.959Z,1004.33
2022-08-10T03:09:29.950Z,1004.32
2022-08-10T03:10:29.934Z,1004.35
2022-08-10T03:12:36.177Z,1004.28
2022-08-10T03:12:38.481Z,1004.34
2022-08-10T03:13:29.897Z,1004.29
2022-08-10T03:14:29.883Z,1004.36
2022-08-10T03:15:29.878Z,1004.32
2022-08-10T03:16:33.236Z,1004.32
2022-08-10T03:17:29.851Z,1004.31
2022-08-10T03:18:29.831Z,1004.35
2022-08-10T03:20:34.367Z,1004.35
2022-08-10T03:20:35.210Z,1004.32
2022-08-10T03:21:31.794Z,1004.33
2022-08-10T03:22:29.779Z,1004.34
2022-08-10T03:23:29.768Z,1004.32
2022-08-10T03:24:33.231Z,1004.31
2022-08-10T03:25:29.742Z,1004.37
2022-08-10T03:26:29.728Z,1004.32
2022-08-10T03:27:29.719Z,1004.36
2022-08-10T03:28:29.702Z,1004.32
2022-08-10T03:29:29.691Z,1004.31
2022-08-10T03:30:33.230Z,1004.32
2022-08-10T03:31:29.690Z,1004.30
2022-08-10T03:32:29.651Z,1004.36
2022-08-10T03:33:29.642Z,1004.30
2022-08-10T03:34:33.336Z,1004.29
2022-08-10T03:35:29.614Z,1004.26
2022-08-10T03:36:44.089Z,1004.30
2022-08-10T03:37:29.588Z,1004.33
2022-08-10T03:38:29.574Z,1004.25
2022-08-10T03:39:29.651Z,1004.31
2022-08-10T03:40:44.919Z,1004.30
2022-08-10T03:41:29.752Z,1004.33
2022-08-10T03:42:29.523Z,1004.29
2022-08-10T03:43:29.509Z,1004.27
2022-08-10T03:44:29.496Z,1004.33
2022-08-10T03:45:29.484Z,1004.20
2022-08-10T03:46:29.469Z,1004.22
2022-08-10T03:47:29.458Z,1004.18
2022-08-10T03:48:32.173Z,1004.21
2022-08-10T03:49:29.432Z,1004.25
2022-08-10T03:50:50.997Z,1004.22
2022-08-10T03:51:29.405Z,1004.27
2022-08-10T03:52:29.391Z,1004.19
2022-08-10T03:54:05.590Z,1004.21
2022-08-10T03:54:31.365Z,1004.23
2022-08-10T03:56:26.935Z,1004.22
2022-08-10T03:56:32.313Z,1004.27
2022-08-10T03:57:29.329Z,1004.25
2022-08-10T03:58:29.318Z,1004.33
2022-08-10T03:59:29.303Z,1004.30
2022-08-10T04:00:29.288Z,1004.30
2022-08-10T04:02:41.663Z,1004.31
2022-08-10T04:02:43.557Z,1004.26
2022-08-10T04:03:29.397Z,1004.28
2022-08-10T04:04:29.238Z,1004.31
2022-08-10T04:05:38.861Z,1004.32
2022-08-10T04:06:29.212Z,1004.33
2022-08-10T04:07:29.200Z,1004.30
2022-08-10T04:08:29.185Z,1004.37
2022-08-10T04:09:42.812Z,1004.37
2022-08-10T04:10:31.161Z,1004.38
2022-08-10T04:11:29.147Z,1004.40
2022-08-10T04:12:29.133Z,1004.43
2022-08-10T04:13:29.122Z,1004.42
2022-08-10T04:14:38.136Z,1004.40
2022-08-10T04:15:29.097Z,1004.39
2022-08-10T04:16:29.081Z,1004.39
2022-08-10T04:18:04.013Z,1004.40
2022-08-10T04:18:29.056Z,1004.40
2022-08-10T04:19:29.044Z,1004.37
2022-08-10T04:20:29.976Z,1004.39
2022-08-10T04:21:29.019Z,1004.39
2022-08-10T04:22:29.006Z,1004.45
2022-08-10T04:23:28.993Z,1004.44
2022-08-10T04:24:33.080Z,1004.44
2022-08-10T04:25:28.970Z,1004.40
2022-08-10T04:26:28.954Z,1004.49
2022-08-10T04:27:28.943Z,1004.48
2022-08-10T04:28:28.929Z,1004.47
2022-08-10T04:29:28.918Z,1004.45
2022-08-10T04:30:28.903Z,1004.52
2022-08-10T04:31:28.890Z,1004.49
2022-08-10T04:32:28.875Z,1004.51
2022-08-10T04:33:28.865Z,1004.48
2022-08-10T04:34:28.849Z,1004.52
2022-08-10T04:35:28.843Z,1004.51
2022-08-10T04:36:28.826Z,1004.49
2022-08-10T04:37:28.813Z,1004.51
2022-08-10T04:38:28.799Z,1004.53
2022-08-10T04:39:28.899Z,1004.52
2022-08-10T04:40:30.916Z,1004.50
2022-08-10T04:41:28.761Z,1004.56
2022-08-10T04:42:28.752Z,1004.49
2022-08-10T04:43:28.736Z,1004.50
2022-08-10T04:44:28.721Z,1004.49
2022-08-10T04:45:50.422Z,1004.45
2022-08-10T04:46:55.810Z,1004.50
2022-08-10T04:47:57.613Z,1004.52
2022-08-10T04:48:40.551Z,1004.52
2022-08-10T04:49:55.653Z,1004.51
2022-08-10T04:50:28.645Z,1004.55
2022-08-10T04:51:28.632Z,1004.45
2022-08-10T04:52:28.619Z,1004.47
2022-08-10T04:53:28.606Z,1004.49
2022-08-10T04:54:29.901Z,1004.46
2022-08-10T04:55:28.579Z,1004.47
2022-08-10T04:56:31.221Z,1004.50
2022-08-10T04:57:28.553Z,1004.52
2022-08-10T04:58:28.539Z,1004.53
2022-08-10T04:59:28.527Z,1004.48
2022-08-10T05:00:28.513Z,1004.49
2022-08-10T05:02:13.453Z,1004.48
2022-08-10T05:02:32.192Z,1004.47
2022-08-10T05:03:28.475Z,1004.46
2022-08-10T05:04:38.627Z,1004.46
2022-08-10T05:05:30.457Z,1004.44
2022-08-10T05:06:28.434Z,1004.46
2022-08-10T05:07:28.421Z,1004.49
2022-08-10T05:08:28.407Z,1004.51
2022-08-10T05:09:28.397Z,1004.56
2022-08-10T05:10:28.382Z,1004.56
2022-08-10T05:11:28.370Z,1004.47
2022-08-10T05:12:28.356Z,1004.54
2022-08-10T05:13:28.344Z,1004.54
2022-08-10T05:14:28.329Z,1004.53
2022-08-10T05:15:28.319Z,1004.56
2022-08-10T05:16:31.977Z,1004.61
2022-08-10T05:17:28.289Z,1004.60
2022-08-10T05:18:28.275Z,1004.60
2022-08-10T05:20:03.607Z,1004.56
2022-08-10T05:20:28.249Z,1004.53
2022-08-10T05:22:03.955Z,1004.55
2022-08-10T05:22:28.220Z,1004.55
2022-08-10T05:23:28.208Z,1004.56
2022-08-10T05:24:28.201Z,1004.55
2022-08-10T05:25:28.181Z,1004.54
2022-08-10T05:26:28.167Z,1004.50
2022-08-10T05:27:28.155Z,1004.52
2022-08-10T05:28:30.197Z,1004.55
2022-08-10T05:29:28.128Z,1004.53
2022-08-10T05:30:28.116Z,1004.50
2022-08-10T05:31:28.101Z,1004.43
2022-08-10T05:32:28.088Z,1004.48
2022-08-10T05:33:28.076Z,1004.45
2022-08-10T05:34:28.078Z,1004.37
2022-08-10T05:35:28.060Z,1004.33
2022-08-10T05:36:28.033Z,1004.43
2022-08-10T05:38:10.375Z,1004.41
2022-08-10T05:38:28.007Z,1004.38
2022-08-10T05:39:30.594Z,1004.36
2022-08-10T05:40:27.981Z,1004.38
2022-08-10T05:41:27.969Z,1004.36
2022-08-10T05:42:28.005Z,1004.34
2022-08-10T05:43:27.944Z,1004.32
2022-08-10T05:44:27.927Z,1004.30
2022-08-10T05:45:27.917Z,1004.40
2022-08-10T05:46:27.902Z,1004.41
2022-08-10T05:47:27.891Z,1004.42
2022-08-10T05:48:56.405Z,1004.44
2022-08-10T05:49:27.867Z,1004.40
2022-08-10T05:50:27.854Z,1004.39
2022-08-10T05:51:27.839Z,1004.44
2022-08-10T05:54:01.479Z,1004.42
2022-08-10T05:54:27.797Z,1004.40
2022-08-10T05:55:27.788Z,1004.40
2022-08-10T05:56:27.772Z,1004.41
2022-08-10T05:57:27.759Z,1004.43
2022-08-10T05:58:27.747Z,1004.40
2022-08-10T06:00:29.528Z,1004.44
2022-08-10T06:00:37.272Z,1004.46
2022-08-10T06:01:27.729Z,1004.38
2022-08-10T06:02:34.074Z,1004.40
2022-08-10T06:03:29.684Z,1004.42
2022-08-10T06:04:27.667Z,1004.37
2022-08-10T06:05:27.656Z,1004.34
2022-08-10T06:06:27.641Z,1004.40
2022-08-10T06:07:27.630Z,1004.38
2022-08-10T06:08:27.618Z,1004.39
2022-08-10T06:09:27.606Z,1004.39
2022-08-10T06:10:31.530Z,1004.41
2022-08-10T06:12:24.048Z,1004.33
2022-08-10T06:12:30.318Z,1004.39
2022-08-10T06:13:30.931Z,1004.36
2022-08-10T06:14:28.571Z,1004.40
2022-08-10T06:15:51.911Z,1004.36
2022-08-10T06:16:27.515Z,1004.33
2022-08-10T06:17:27.501Z,1004.33
2022-08-10T06:18:27.487Z,1004.32
2022-08-10T06:19:27.475Z,1004.34
2022-08-10T06:20:27.462Z,1004.38
2022-08-10T06:21:27.450Z,1004.39
2022-08-10T06:22:27.506Z,1004.35
2022-08-10T06:23:27.425Z,1004.44
2022-08-10T06:24:30.342Z,1004.35
2022-08-10T06:26:12.119Z,1004.37
2022-08-10T06:26:27.387Z,1004.38
2022-08-10T06:27:34.231Z,1004.34
2022-08-10T06:28:27.361Z,1004.32
2022-08-10T06:29:30.050Z,1004.37
2022-08-10T06:30:27.335Z,1004.34
2022-08-10T06:31:27.323Z,1004.32
2022-08-10T06:32:27.407Z,1004.35
2022-08-10T06:34:27.287Z,1004.32
2022-08-10T06:35:27.270Z,1004.32
2022-08-10T06:36:27.264Z,1004.39
2022-08-10T06:37:27.247Z,1004.38
2022-08-10T06:38:27.233Z,1004.32
2022-08-10T06:39:34.139Z,1004.39
2022-08-10T06:40:29.234Z,1004.43
2022-08-10T06:42:15.142Z,1004.41
2022-08-10T06:42:27.185Z,1004.44
2022-08-10T06:43:27.170Z,1004.44
2022-08-10T06:44:27.159Z,1004.43
2022-08-10T06:45:27.148Z,1004.40
2022-08-10T06:46:27.136Z,1004.41
2022-08-10T06:47:27.122Z,1004.41
2022-08-10T06:48:27.110Z,1004.42
2022-08-10T06:49:27.097Z,1004.40
2022-08-10T06:50:45.498Z,1004.46
2022-08-10T06:51:27.075Z,1004.46
2022-08-10T06:52:27.064Z,1004.48
2022-08-10T06:53:52.836Z,1004.39
2022-08-10T06:54:27.035Z,1004.44
2022-08-10T06:55:27.318Z,1004.38
2022-08-10T06:56:36.636Z,1004.42
2022-08-10T06:57:26.995Z,1004.44
2022-08-10T06:58:27.267Z,1004.42
2022-08-10T06:59:26.970Z,1004.46
2022-08-10T07:00:33.359Z,1004.42
2022-08-10T07:01:26.986Z,1004.47
2022-08-10T07:02:27.015Z,1004.40
2022-08-10T07:03:26.918Z,1004.48
2022-08-10T07:04:32.207Z,1004.44
2022-08-10T07:05:26.894Z,1004.44
2022-08-10T07:06:26.881Z,1004.41
2022-08-10T07:07:26.865Z,1004.44
2022-08-10T07:08:26.857Z,1004.46
2022-08-10T07:09:26.841Z,1004.40
2022-08-10T07:10:46.001Z,1004.41
2022-08-10T07:11:26.817Z,1004.44
2022-08-10T07:12:26.835Z,1004.48
2022-08-10T07:14:15.317Z,1004.46
2022-08-10T07:14:26.779Z,1004.50
2022-08-10T07:16:00.354Z,1004.43
2022-08-10T07:16:26.757Z,1004.45
2022-08-10T07:17:26.745Z,1004.44
2022-08-10T07:18:26.731Z,1004.42
2022-08-10T07:19:26.719Z,1004.40
2022-08-10T07:20:26.707Z,1004.42
2022-08-10T07:21:26.692Z,1004.44
2022-08-10T07:23:22.733Z,1004.42
2022-08-10T07:23:57.559Z,1004.41
2022-08-10T07:24:26.658Z,1004.52
2022-08-10T07:25:26.645Z,1004.42
2022-08-10T07:26:26.633Z,1004.45
2022-08-10T07:27:26.622Z,1004.39
2022-08-10T07:28:26.607Z,1004.42
2022-08-10T07:29:53.568Z,1004.43
2022-08-10T07:30:26.581Z,1004.42
2022-08-10T07:31:54.419Z,1004.44
2022-08-10T07:32:28.556Z,1004.40
2022-08-10T07:33:26.544Z,1004.45
2022-08-10T07:34:29.656Z,1004.48
2022-08-10T07:35:26.523Z,1004.39
2022-08-10T07:36:26.506Z,1004.42
2022-08-10T07:37:26.493Z,1004.36
2022-08-10T07:38:26.483Z,1004.38
2022-08-10T07:39:58.154Z,1004.36
2022-08-10T07:40:28.552Z,1004.41
2022-08-10T07:41:26.445Z,1004.40
2022-08-10T07:42:26.540Z,1004.41
2022-08-10T07:43:26.482Z,1004.40
2022-08-10T07:44:26.410Z,1004.42
2022-08-10T07:45:26.395Z,1004.46
2022-08-10T07:46:26.386Z,1004.35
2022-08-10T07:47:52.644Z,1004.40
2022-08-10T07:48:26.361Z,1004.39
2022-08-10T07:49:26.348Z,1004.39
2022-08-10T07:50:26.338Z,1004.41
2022-08-10T07:51:26.323Z,1004.41
2022-08-10T07:52:26.329Z,1004.47
2022-08-10T07:53:26.303Z,1004.50
2022-08-10T07:54:26.299Z,1004.48
2022-08-10T07:56:04.596Z,1004.41
2022-08-10T07:56:47.245Z,1004.45
2022-08-10T07:57:30.788Z,1004.46
2022-08-10T07:58:26.241Z,1004.51
2022-08-10T07:59:26.228Z,1004.47
2022-08-10T08:00:26.216Z,1004.50
2022-08-10T08:01:26.222Z,1004.49
2022-08-10T08:02:26.333Z,1004.40
2022-08-10T08:03:26.178Z,1004.49
2022-08-10T08:04:26.168Z,1004.48
2022-08-10T08:05:54.926Z,1004.49
2022-08-10T08:06:28.143Z,1004.49
2022-08-10T08:07:26.129Z,1004.53
2022-08-10T08:08:26.120Z,1004.43
2022-08-10T08:09:26.108Z,1004.46
2022-08-10T08:10:26.097Z,1004.42
2022-08-10T08:11:26.672Z,1004.45
2022-08-10T08:12:26.152Z,1004.44
2022-08-10T08:13:26.061Z,1004.41
2022-08-10T08:14:26.052Z,1004.39
2022-08-10T08:16:21.546Z,1004.41
2022-08-10T08:16:26.036Z,1004.41
2022-08-10T08:17:36.265Z,1004.36
2022-08-10T08:18:26.006Z,1004.40
2022-08-10T08:19:27.852Z,1004.40
2022-08-10T08:20:25.985Z,1004.35
2022-08-10T08:24:06.695Z,1004.38
2022-08-10T08:24:07.659Z,1004.42
2022-08-10T08:24:14.653Z,1004.39
2022-08-10T08:24:30.858Z,1004.47
2022-08-10T08:25:25.925Z,1004.38
2022-08-10T08:26:25.914Z,1004.40
2022-08-10T08:27:25.903Z,1004.40
2022-08-10T08:28:25.891Z,1004.48
2022-08-10T08:29:25.876Z,1004.44
2022-08-10T08:30:26.829Z,1004.39
2022-08-10T08:31:25.851Z,1004.39
2022-08-10T08:32:25.839Z,1004.43
2022-08-10T08:33:41.995Z,1004.39
2022-08-10T08:34:27.813Z,1004.39
2022-08-10T08:35:25.799Z,1004.35
2022-08-10T08:36:25.789Z,1004.38
2022-08-10T08:38:29.732Z,1004.40
2022-08-10T08:38:33.027Z,1004.40
2022-08-10T08:39:25.790Z,1004.42
2022-08-10T08:40:25.739Z,1004.37
2022-08-10T08:41:25.729Z,1004.31
2022-08-10T08:42:25.714Z,1004.37
2022-08-10T08:43:29.786Z,1004.36
2022-08-10T08:44:25.690Z,1004.31
2022-08-10T08:45:25.683Z,1004.31
2022-08-10T08:46:25.665Z,1004.34
2022-08-10T08:48:02.944Z,1004.36
2022-08-10T08:48:27.641Z,1004.33
2022-08-10T08:50:08.359Z,1004.28
2022-08-10T08:50:25.618Z,1004.35
2022-08-10T08:52:09.442Z,1004.35
2022-08-10T08:52:25.596Z,1004.26
2022-08-10T08:53:25.580Z,1004.26
2022-08-10T08:54:25.571Z,1004.27
2022-08-10T08:56:03.574Z,1004.20
2022-08-10T08:56:27.553Z,1004.28
2022-08-10T08:57:50.433Z,1004.27
2022-08-10T08:58:25.525Z,1004.20
2022-08-10T08:59:25.514Z,1004.25
2022-08-10T09:00:25.502Z,1004.22
2022-08-10T09:01:38.282Z,1004.15
2022-08-10T09:02:25.482Z,1004.18
2022-08-10T09:03:28.314Z,1004.20
2022-08-10T09:04:25.456Z,1004.20
2022-08-10T09:05:26.030Z,1004.14
2022-08-10T09:06:25.433Z,1004.13
2022-08-10T09:08:00.592Z,1004.22
2022-08-10T09:08:25.409Z,1004.16
2022-08-10T09:09:25.397Z,1004.18
2022-08-10T09:10:25.386Z,1004.09
2022-08-10T09:11:25.374Z,1004.11
2022-08-10T09:12:25.365Z,1004.08
2022-08-10T09:13:25.350Z,1004.15
2022-08-10T09:14:25.866Z,1004.10
2022-08-10T09:15:40.523Z,1004.03
2022-08-10T09:16:25.317Z,1004.07
2022-08-10T09:17:25.305Z,1004.08
2022-08-10T09:18:25.307Z,1004.06
2022-08-10T09:19:34.986Z,1004.06
2022-08-10T09:20:27.272Z,1004.03
2022-08-10T09:21:25.259Z,1004.02
2022-08-10T09:22:25.249Z,1004.02
2022-08-10T09:24:01.694Z,1004.04
2022-08-10T09:24:25.225Z,1004.06
2022-08-10T09:25:25.212Z,1003.98
2022-08-10T09:26:25.202Z,1004.03
2022-08-10T09:27:25.189Z,1003.95
2022-08-10T09:28:26.472Z,1003.97
2022-08-10T09:29:25.167Z,1004.01
2022-08-10T09:30:28.384Z,1003.98
2022-08-10T09:31:26.135Z,1004.00
2022-08-10T09:36:15.599Z,1003.93
2022-08-10T09:36:23.161Z,1003.90
2022-08-10T09:36:23.689Z,1003.85
2022-08-10T09:36:26.172Z,1003.86
2022-08-10T09:36:31.999Z,1003.90
2022-08-10T09:37:40.060Z,1003.87
2022-08-10T09:38:25.064Z,1003.84
2022-08-10T09:40:12.495Z,1003.87
2022-08-10T09:40:59.662Z,1003.81
2022-08-10T09:41:25.057Z,1003.85
2022-08-10T09:42:25.022Z,1003.75
2022-08-10T09:43:26.568Z,1003.82
2022-08-10T09:44:24.996Z,1003.82
2022-08-10T09:45:24.984Z,1003.79
2022-08-10T09:46:27.468Z,1003.81
2022-08-10T09:48:00.751Z,1003.76
2022-08-10T09:48:24.952Z,1003.75
2022-08-10T09:49:52.990Z,1003.71
2022-08-10T09:50:24.926Z,1003.71
2022-08-10T09:52:24.904Z,1003.71
2022-08-10T09:53:24.892Z,1003.72
2022-08-10T09:54:24.881Z,1003.64
2022-08-10T09:55:24.869Z,1003.70
2022-08-10T09:56:28.535Z,1003.62
2022-08-10T09:57:44.098Z,1003.62
2022-08-10T09:58:24.840Z,1003.65
2022-08-10T09:59:29.309Z,1003.65
2022-08-10T10:00:24.818Z,1003.59
2022-08-10T10:02:02.868Z,1003.59
2022-08-10T10:02:24.799Z,1003.50
2022-08-10T10:03:26.190Z,1003.54
2022-08-10T10:04:24.775Z,1003.59
2022-08-10T10:05:24.777Z,1003.60
2022-08-10T10:06:24.753Z,1003.65
2022-08-10T10:07:24.740Z,1003.55
2022-08-10T10:08:24.731Z,1003.59
2022-08-10T10:09:26.804Z,1003.63
2022-08-10T10:10:24.712Z,1003.55
2022-08-10T10:11:24.724Z,1003.54
2022-08-10T10:12:24.701Z,1003.53
2022-08-10T10:13:41.718Z,1003.52
2022-08-10T10:14:24.668Z,1003.49
2022-08-10T10:15:25.869Z,1003.47
2022-08-10T10:16:24.648Z,1003.44
2022-08-10T10:17:24.636Z,1003.44
2022-08-10T10:18:24.626Z,1003.40
2022-08-10T10:19:24.617Z,1003.39
2022-08-10T10:20:24.605Z,1003.39
2022-08-10T10:21:55.307Z,1003.31
2022-08-10T10:22:24.585Z,1003.32
2022-08-10T10:23:24.573Z,1003.35
2022-08-10T10:24:24.564Z,1003.33
2022-08-10T10:25:24.553Z,1003.42
2022-08-10T10:26:24.543Z,1003.38
2022-08-10T10:27:24.532Z,1003.29
2022-08-10T10:28:24.521Z,1003.37
2022-08-10T10:29:57.242Z,1003.32
2022-08-10T10:30:26.500Z,1003.32
2022-08-10T10:31:24.490Z,1003.36
2022-08-10T10:32:24.504Z,1003.34
2022-08-10T10:33:24.478Z,1003.33
2022-08-10T10:35:24.476Z,1003.25
2022-08-10T10:36:24.438Z,1003.25
2022-08-10T10:38:01.356Z,1003.25
2022-08-10T10:38:24.414Z,1003.28
2022-08-10T10:39:24.589Z,1003.24
2022-08-10T10:40:24.393Z,1003.17
2022-08-10T10:41:24.381Z,1003.20
2022-08-10T10:42:44.255Z,1003.28
2022-08-10T10:43:26.357Z,1003.20
2022-08-10T10:44:24.350Z,1003.16
2022-08-10T10:45:24.338Z,1003.19
2022-08-10T10:46:24.330Z,1003.19
2022-08-10T10:47:24.317Z,1003.14
2022-08-10T10:48:29.071Z,1003.16
2022-08-10T10:49:24.297Z,1003.14
2022-08-10T10:50:24.285Z,1003.18
2022-08-10T10:51:24.275Z,1003.05
2022-08-10T10:52:24.263Z,1003.04
2022-08-10T10:53:24.254Z,1002.95
2022-08-10T10:54:24.241Z,1002.98
2022-08-10T10:55:24.234Z,1003.07
2022-08-10T10:56:24.220Z,1003.03
2022-08-10T10:57:24.212Z,1002.67
2022-08-10T10:58:27.880Z,1003.07
2022-08-10T10:59:54.363Z,1003.13
2022-08-10T11:00:26.176Z,1003.08
2022-08-10T11:01:24.262Z,1003.06
2022-08-10T11:02:24.156Z,1003.09
2022-08-10T11:03:24.147Z,1003.02
2022-08-10T11:04:24.138Z,1002.91
2022-08-10T11:05:24.133Z,1002.99
2022-08-10T11:06:39.229Z,1002.95
2022-08-10T11:07:29.487Z,1002.95
2022-08-10T11:08:29.016Z,1002.86
2022-08-10T11:10:03.711Z,1002.92
2022-08-10T11:10:32.848Z,1002.83
2022-08-10T11:12:01.471Z,1002.81
2022-08-10T11:12:26.241Z,1002.83
2022-08-10T11:14:24.342Z,1002.89
2022-08-10T11:14:29.215Z,1002.88
2022-08-10T11:15:24.019Z,1002.85
2022-08-10T11:16:24.009Z,1002.84
2022-08-10T11:17:23.999Z,1002.96
2022-08-10T11:18:23.988Z,1002.89
2022-08-10T11:19:23.979Z,1002.91
2022-08-10T11:20:23.971Z,1002.90
2022-08-10T11:21:23.959Z,1002.88
2022-08-10T11:22:23.946Z,1002.97
2022-08-10T11:23:23.937Z,1002.95
2022-08-10T11:24:47.784Z,1002.85
2022-08-10T11:25:23.917Z,1002.80
2022-08-10T11:26:23.904Z,1002.79
2022-08-10T11:27:23.894Z,1002.66
2022-08-10T11:28:23.884Z,1002.75
2022-08-10T11:29:23.875Z,1002.73
2022-08-10T11:30:23.870Z,1002.85
2022-08-10T11:31:23.866Z,1002.80
2022-08-10T11:32:23.840Z,1002.75
2022-08-10T11:33:32.596Z,1002.72
2022-08-10T11:34:48.316Z,1002.77
2022-08-10T11:35:25.807Z,1002.66
2022-08-10T11:36:23.800Z,1002.76
2022-08-10T11:37:23.787Z,1002.70
2022-08-10T11:38:28.394Z,1002.50
2022-08-10T11:39:23.842Z,1002.58
2022-08-10T11:40:23.755Z,1002.58
2022-08-10T11:42:07.739Z,1002.57
2022-08-10T11:42:31.608Z,1002.60
2022-08-10T11:43:23.723Z,1002.59
2022-08-10T11:44:23.709Z,1002.65
2022-08-10T11:45:23.699Z,1002.52
2022-08-10T11:46:28.652Z,1002.55
2022-08-10T11:47:23.676Z,1002.62
2022-08-10T11:48:54.508Z,1002.58
2022-08-10T11:49:23.654Z,1002.50
2022-08-10T11:50:23.639Z,1002.47
2022-08-10T11:51:23.630Z,1002.50
2022-08-10T11:52:23.616Z,1002.53
2022-08-10T11:53:23.605Z,1002.48
2022-08-10T11:54:23.592Z,1002.55
2022-08-10T11:55:23.583Z,1002.52
2022-08-10T11:56:23.571Z,1002.44
2022-08-10T11:57:23.807Z,1002.44
2022-08-10T11:58:23.549Z,1002.52
2022-08-10T11:59:23.538Z,1002.51
2022-08-10T12:00:23.528Z,1002.53
2022-08-10T12:01:23.518Z,1002.47
2022-08-10T12:02:23.581Z,1002.48
2022-08-10T12:03:23.495Z,1002.52
2022-08-10T12:04:23.484Z,1002.49
2022-08-10T12:05:23.872Z,1002.47
2022-08-10T12:06:45.475Z,1002.47
2022-08-10T12:10:02.676Z,1002.47
2022-08-10T12:10:07.709Z,1002.43
2022-08-10T12:10:09.931Z,1002.34
2022-08-10T12:10:25.411Z,1002.42